sensor_id;sensor_type;location;lat;lon;timestamp;pressure;altitude;pressure_sealevel;temperature;humidity
53647;BME280;39550;52.230;5.194;2023-11-21T00:06:02;100818.78;;;7.70;100.00
53647;BME280;39550;52.230;5.194;2023-11-21T00:08:36;100896.69;;;8.17;100.00
53647;BME280;39550;52.230;5.194;2023-11-21T00:11:14;100911.28;;;8.22;100.00
53647;BME280;39550;52.230;5.194;2023-11-21T00:17:09;100849.72;;;7.77;100.00
53647;BME280;39550;52.230;5.194;2023-11-21T00:19:40;100842.84;;;7.75;100.00
53647;BME280;39550;52.230;5.194;2023-11-21T00:22:11;100960.50;;;8.43;100.00
53647;BME280;39550;52.230;5.194;2023-11-21T00:24:39;100890.34;;;8.00;100.00
53647;BME280;39550;52.230;5.194;2023-11-21T00:27:32;100894.66;;;8.01;100.00
53647;BME280;39550;52.230;5.194;2023-11-21T00:30:11;100910.22;;;8.10;100.00
53647;BME280;39550;52.230;5.194;2023-11-21T00:32:53;100848.75;;;7.72;100.00
53647;BME280;39550;52.230;5.194;2023-11-21T00:35:19;100891.22;;;8.00;100.00
53647;BME280;39550;52.230;5.194;2023-11-21T00:40:52;100915.41;;;8.13;100.00
53647;BME280;39550;52.230;5.194;2023-11-21T00:46:09;100889.41;;;7.95;100.00
53647;BME280;39550;52.230;5.194;2023-11-21T00:49:05;100898.06;;;8.01;100.00
53647;BME280;39550;52.230;5.194;2023-11-21T00:55:30;100903.97;;;7.97;100.00
53647;BME280;39550;52.230;5.194;2023-11-21T00:58:18;100915.13;;;7.98;100.00
53647;BME280;39550;52.230;5.194;2023-11-21T01:00:55;100933.34;;;8.12;100.00
53647;BME280;39550;52.230;5.194;2023-11-21T01:03:40;100941.13;;;8.16;100.00
53647;BME280;39550;52.230;5.194;2023-11-21T01:06:22;100946.28;;;8.16;100.00
53647;BME280;39550;52.230;5.194;2023-11-21T01:09:16;100920.25;;;7.98;100.00
53647;BME280;39550;52.230;5.194;2023-11-21T01:14:37;100930.63;;;8.04;100.00
53647;BME280;39550;52.230;5.194;2023-11-21T01:17:28;100983.47;;;8.37;100.00
53647;BME280;39550;52.230;5.194;2023-11-21T01:20:04;100891.72;;;7.81;100.00
53647;BME280;39550;52.230;5.194;2023-11-21T01:22:43;100921.94;;;7.97;100.00
53647;BME280;39550;52.230;5.194;2023-11-21T01:25:32;100965.06;;;8.15;100.00
53647;BME280;39550;52.230;5.194;2023-11-21T01:28:03;100918.47;;;7.94;100.00
53647;BME280;39550;52.230;5.194;2023-11-21T01:30:43;100895.91;;;7.77;100.00
53647;BME280;39550;52.230;5.194;2023-11-21T01:36:19;100904.47;;;7.79;100.00
53647;BME280;39550;52.230;5.194;2023-11-21T01:39:27;100906.16;;;7.77;100.00
53647;BME280;39550;52.230;5.194;2023-11-21T01:42:20;100899.19;;;7.70;100.00
53647;BME280;39550;52.230;5.194;2023-11-21T01:44:47;100964.91;;;8.06;100.00
53647;BME280;39550;52.230;5.194;2023-11-21T01:47:23;100973.56;;;8.11;100.00
53647;BME280;39550;52.230;5.194;2023-11-21T01:50:09;100949.13;;;7.88;100.00
53647;BME280;39550;52.230;5.194;2023-11-21T01:52:38;100943.16;;;7.89;100.00
53647;BME280;39550;52.230;5.194;2023-11-21T01:55:10;101022.78;;;8.34;100.00
53647;BME280;39550;52.230;5.194;2023-11-21T02:00:32;101032.22;;;8.35;100.00
53647;BME280;39550;52.230;5.194;2023-11-21T02:02:58;100897.19;;;7.57;100.00
53647;BME280;39550;52.230;5.194;2023-11-21T02:05:39;100916.94;;;7.61;100.00
53647;BME280;39550;52.230;5.194;2023-11-21T02:08:17;100963.66;;;7.87;100.00
53647;BME280;39550;52.230;5.194;2023-11-21T02:10:58;100980.06;;;7.94;100.00
53647;BME280;39550;52.230;5.194;2023-11-21T02:13:59;100941.94;;;7.71;99.95
53647;BME280;39550;52.230;5.194;2023-11-21T02:17:12;101051.00;;;8.33;99.90
53647;BME280;39550;52.230;5.194;2023-11-21T02:19:41;100940.06;;;7.64;100.00
53647;BME280;39550;52.230;5.194;2023-11-21T02:22:13;100940.16;;;7.67;100.00
53647;BME280;39550;52.230;5.194;2023-11-21T02:25:22;100958.22;;;7.73;99.98
53647;BME280;39550;52.230;5.194;2023-11-21T02:28:11;100934.94;;;7.64;100.00
53647;BME280;39550;52.230;5.194;2023-11-21T02:31:28;100993.69;;;7.91;100.00
53647;BME280;39550;52.230;5.194;2023-11-21T02:34:17;101018.88;;;8.09;100.00
53647;BME280;39550;52.230;5.194;2023-11-21T02:43:51;100992.78;;;7.89;100.00
53647;BME280;39550;52.230;5.194;2023-11-21T02:46:34;100943.50;;;7.63;100.00
53647;BME280;39550;52.230;5.194;2023-11-21T02:49:43;100941.72;;;7.60;100.00
53647;BME280;39550;52.230;5.194;2023-11-21T02:52:30;100992.81;;;7.91;100.00
53647;BME280;39550;52.230;5.194;2023-11-21T03:02:22;101017.91;;;8.06;100.00
53647;BME280;39550;52.230;5.194;2023-11-21T03:04:56;100944.25;;;7.59;100.00
53647;BME280;39550;52.230;5.194;2023-11-21T03:07:30;101073.13;;;8.28;100.00
53647;BME280;39550;52.230;5.194;2023-11-21T03:10:05;100959.75;;;7.63;100.00
53647;BME280;39550;52.230;5.194;2023-11-21T03:12:46;100932.13;;;7.52;100.00
53647;BME280;39550;52.230;5.194;2023-11-21T03:15:27;100926.91;;;7.47;100.00
53647;BME280;39550;52.230;5.194;2023-11-21T03:18:00;100990.06;;;7.81;100.00
53647;BME280;39550;52.230;5.194;2023-11-21T03:20:32;100988.38;;;7.83;100.00
53647;BME280;39550;52.230;5.194;2023-11-21T03:23:15;100947.59;;;7.55;100.00
53647;BME280;39550;52.230;5.194;2023-11-21T03:26:24;100974.41;;;7.69;100.00
53647;BME280;39550;52.230;5.194;2023-11-21T03:28:52;100932.81;;;7.44;100.00
53647;BME280;39550;52.230;5.194;2023-11-21T03:31:31;100989.13;;;7.79;100.00
53647;BME280;39550;52.230;5.194;2023-11-21T03:34:28;100971.84;;;7.71;100.00
53647;BME280;39550;52.230;5.194;2023-11-21T03:37:19;101067.94;;;8.25;100.00
53647;BME280;39550;52.230;5.194;2023-11-21T03:40:12;101011.53;;;7.85;100.00
53647;BME280;39550;52.230;5.194;2023-11-21T03:42:52;101079.91;;;8.23;100.00
53647;BME280;39550;52.230;5.194;2023-11-21T03:45:50;101073.09;;;8.25;100.00
53647;BME280;39550;52.230;5.194;2023-11-21T03:48:21;101077.31;;;8.21;100.00
53647;BME280;39550;52.230;5.194;2023-11-21T03:53:37;101015.66;;;7.78;100.00
53647;BME280;39550;52.230;5.194;2023-11-21T03:56:14;101058.94;;;8.04;100.00
53647;BME280;39550;52.230;5.194;2023-11-21T03:58:47;101018.19;;;7.77;100.00
53647;BME280;39550;52.230;5.194;2023-11-21T04:04:14;101024.13;;;7.76;100.00
53647;BME280;39550;52.230;5.194;2023-11-21T04:07:17;101041.34;;;7.80;100.00
53647;BME280;39550;52.230;5.194;2023-11-21T04:10:09;101051.63;;;7.81;99.93
53647;BME280;39550;52.230;5.194;2023-11-21T04:12:42;101072.56;;;8.00;100.00
53647;BME280;39550;52.230;5.194;2023-11-21T04:15:43;101070.84;;;7.99;100.00
53647;BME280;39550;52.230;5.194;2023-11-21T04:18:19;101065.44;;;7.87;100.00
53647;BME280;39550;52.230;5.194;2023-11-21T04:21:28;101130.34;;;8.22;100.00
53647;BME280;39550;52.230;5.194;2023-11-21T04:27:08;101086.09;;;7.93;100.00
53647;BME280;39550;52.230;5.194;2023-11-21T04:29:59;101024.41;;;7.50;100.00
53647;BME280;39550;52.230;5.194;2023-11-21T04:32:38;101098.09;;;7.94;100.00
53647;BME280;39550;52.230;5.194;2023-11-21T04:35:32;101149.19;;;8.21;100.00
53647;BME280;39550;52.230;5.194;2023-11-21T04:38:27;101160.31;;;8.22;100.00
53647;BME280;39550;52.230;5.194;2023-11-21T04:43:53;101072.00;;;7.75;100.00
53647;BME280;39550;52.230;5.194;2023-11-21T04:46:35;101078.94;;;7.79;100.00
53647;BME280;39550;52.230;5.194;2023-11-21T04:49:21;101031.28;;;7.53;100.00
53647;BME280;39550;52.230;5.194;2023-11-21T04:52:06;101146.56;;;8.19;100.00
53647;BME280;39550;52.230;5.194;2023-11-21T04:54:40;101078.03;;;7.77;100.00
53647;BME280;39550;52.230;5.194;2023-11-21T04:57:08;101106.69;;;7.96;100.00
53647;BME280;39550;52.230;5.194;2023-11-21T05:03:13;101155.97;;;8.19;100.00
53647;BME280;39550;52.230;5.194;2023-11-21T05:12:57;101092.63;;;7.80;99.82
53647;BME280;39550;52.230;5.194;2023-11-21T05:15:41;101106.28;;;7.79;99.81
53647;BME280;39550;52.230;5.194;2023-11-21T05:18:31;101173.97;;;8.21;100.00
53647;BME280;39550;52.230;5.194;2023-11-21T05:21:08;101110.53;;;7.77;100.00
53647;BME280;39550;52.230;5.194;2023-11-21T05:23:34;101071.44;;;7.50;100.00
53647;BME280;39550;52.230;5.194;2023-11-21T05:26:14;101114.78;;;7.76;100.00
53647;BME280;39550;52.230;5.194;2023-11-21T06:54:08;101078.56;;;6.94;99.59
53647;BME280;39550;52.230;5.194;2023-11-21T06:56:35;101081.94;;;6.93;100.00
53647;BME280;39550;52.230;5.194;2023-11-21T07:06:31;101175.50;;;7.42;100.00
53647;BME280;39550;52.230;5.194;2023-11-21T07:08:56;101106.81;;;6.97;99.77
53647;BME280;39550;52.230;5.194;2023-11-21T07:11:30;101057.31;;;6.66;99.88
53647;BME280;39550;52.230;5.194;2023-11-21T07:17:42;101081.59;;;6.80;100.00
53647;BME280;39550;52.230;5.194;2023-11-21T10:21:40;101392.97;;;6.98;100.00
53647;BME280;39550;52.230;5.194;2023-11-21T10:24:38;101437.88;;;7.14;100.00
53647;BME280;39550;52.230;5.194;2023-11-21T11:36:03;101713.00;;;8.43;100.00
53647;BME280;39550;52.230;5.194;2023-11-21T11:41:34;101680.38;;;8.13;100.00
53647;BME280;39550;52.230;5.194;2023-11-21T11:50:12;101657.72;;;8.00;100.00
53647;BME280;39550;52.230;5.194;2023-11-21T11:52:42;101699.38;;;8.18;99.91
53647;BME280;39550;52.230;5.194;2023-11-21T11:55:31;101605.25;;;7.63;100.00
53647;BME280;39550;52.230;5.194;2023-11-21T11:58:11;101686.97;;;8.05;99.98
53647;BME280;39550;52.230;5.194;2023-11-21T12:03:37;101744.63;;;8.42;100.00
53647;BME280;39550;52.230;5.194;2023-11-21T12:06:18;101650.34;;;7.83;100.00
53647;BME280;39550;52.230;5.194;2023-11-21T12:08:55;101746.50;;;8.46;99.97
53647;BME280;39550;52.230;5.194;2023-11-21T12:11:31;101708.97;;;8.24;99.72
53647;BME280;39550;52.230;5.194;2023-11-21T12:14:08;101687.06;;;8.08;100.00
53647;BME280;39550;52.230;5.194;2023-11-21T12:16:59;101679.38;;;8.08;99.44
53647;BME280;39550;52.230;5.194;2023-11-21T12:19:44;101669.25;;;8.13;99.46
53647;BME280;39550;52.230;5.194;2023-11-21T12:23:08;101718.66;;;8.33;99.28
53647;BME280;39550;52.230;5.194;2023-11-21T12:25:51;101651.28;;;7.86;99.88
53647;BME280;39550;52.230;5.194;2023-11-21T12:28:58;101665.97;;;7.90;99.97
53647;BME280;39550;52.230;5.194;2023-11-21T12:31:49;101724.28;;;8.21;100.00
53647;BME280;39550;52.230;5.194;2023-11-21T12:34:54;101750.38;;;8.33;99.92
53647;BME280;39550;52.230;5.194;2023-11-21T12:37:41;101698.78;;;8.00;99.95
53647;BME280;39550;52.230;5.194;2023-11-21T12:40:26;101777.22;;;8.43;100.00
53647;BME280;39550;52.230;5.194;2023-11-21T12:49:19;101742.19;;;8.19;100.00
53647;BME280;39550;52.230;5.194;2023-11-21T12:52:40;101691.31;;;7.80;99.64
53647;BME280;39550;52.230;5.194;2023-11-21T12:55:36;101715.78;;;7.96;99.85
53647;BME280;39550;52.230;5.194;2023-11-21T13:01:24;101683.56;;;7.79;100.00
53647;BME280;39550;52.230;5.194;2023-11-21T13:04:08;101734.03;;;8.06;100.00
53647;BME280;39550;52.230;5.194;2023-11-21T13:06:49;101807.91;;;8.40;99.63
53647;BME280;39550;52.230;5.194;2023-11-21T13:09:30;101781.53;;;8.18;100.00
53647;BME280;39550;52.230;5.194;2023-11-21T13:12:08;101748.41;;;7.99;100.00
53647;BME280;39550;52.230;5.194;2023-11-21T13:14:50;101694.31;;;7.67;100.00
53647;BME280;39550;52.230;5.194;2023-11-21T13:17:41;101749.22;;;7.98;100.00
53647;BME280;39550;52.230;5.194;2023-11-21T13:20:18;101766.47;;;8.02;100.00
53647;BME280;39550;52.230;5.194;2023-11-21T13:22:58;101832.81;;;8.43;100.00
53647;BME280;39550;52.230;5.194;2023-11-21T13:25:42;101832.09;;;8.45;100.00
53647;BME280;39550;52.230;5.194;2023-11-21T13:28:36;101766.47;;;8.02;100.00
53647;BME280;39550;52.230;5.194;2023-11-21T13:31:27;101712.41;;;7.72;100.00
53647;BME280;39550;52.230;5.194;2023-11-21T13:34:07;101807.31;;;8.22;100.00
53647;BME280;39550;52.230;5.194;2023-11-21T13:36:41;101782.75;;;8.04;100.00
53647;BME280;39550;52.230;5.194;2023-11-21T13:39:26;101837.72;;;8.35;100.00
53647;BME280;39550;52.230;5.194;2023-11-21T13:42:09;101835.75;;;8.28;100.00
53647;BME280;39550;52.230;5.194;2023-11-21T13:55:20;101862.78;;;8.42;99.83
53647;BME280;39550;52.230;5.194;2023-11-21T13:58:05;101789.13;;;7.90;100.00
53647;BME280;39550;52.230;5.194;2023-11-21T14:00:52;101871.31;;;8.41;100.00
53647;BME280;39550;52.230;5.194;2023-11-21T14:03:57;101783.78;;;7.83;100.00
53647;BME280;39550;52.230;5.194;2023-11-21T14:11:00;101809.56;;;7.87;100.00
53647;BME280;39550;52.230;5.194;2023-11-21T14:17:42;101890.47;;;8.25;100.00
53647;BME280;39550;52.230;5.194;2023-11-21T14:27:16;101887.53;;;8.14;100.00
53647;BME280;39550;52.230;5.194;2023-11-21T15:06:20;101918.56;;;7.96;100.00
53647;BME280;39550;52.230;5.194;2023-11-21T15:09:18;101851.16;;;7.54;99.93
53647;BME280;39550;52.230;5.194;2023-11-21T15:11:56;102007.19;;;8.33;99.78
53647;BME280;39550;52.230;5.194;2023-11-21T15:14:34;101960.72;;;8.03;99.97
53647;BME280;39550;52.230;5.194;2023-11-21T15:17:07;101917.72;;;7.73;100.00
53647;BME280;39550;52.230;5.194;2023-11-21T15:19:33;102028.53;;;8.32;100.00
53647;BME280;39550;52.230;5.194;2023-11-21T15:22:08;101937.19;;;7.68;99.84
53647;BME280;39550;52.230;5.194;2023-11-21T15:24:36;101952.13;;;7.78;100.00
53647;BME280;39550;52.230;5.194;2023-11-21T15:27:11;101941.41;;;7.66;100.00
53647;BME280;39550;52.230;5.194;2023-11-21T15:29:38;101929.09;;;7.57;100.00
53647;BME280;39550;52.230;5.194;2023-11-21T15:32:07;101946.47;;;7.64;100.00
53647;BME280;39550;52.230;5.194;2023-11-21T15:34:34;101958.47;;;7.65;99.98
53647;BME280;39550;52.230;5.194;2023-11-21T15:37:00;101950.72;;;7.64;100.00
53647;BME280;39550;52.230;5.194;2023-11-21T15:39:43;101987.34;;;7.82;100.00
53647;BME280;39550;52.230;5.194;2023-11-21T15:42:12;101965.09;;;7.59;100.00
53647;BME280;39550;52.230;5.194;2023-11-21T15:44:45;101990.38;;;7.72;100.00
53647;BME280;39550;52.230;5.194;2023-11-21T15:47:13;101963.13;;;7.53;100.00
53647;BME280;39550;52.230;5.194;2023-11-21T15:49:42;102047.66;;;7.94;100.00
53647;BME280;39550;52.230;5.194;2023-11-21T15:55:31;102090.41;;;8.16;99.98
53647;BME280;39550;52.230;5.194;2023-11-21T15:57:59;102012.16;;;7.61;100.00
53647;BME280;39550;52.230;5.194;2023-11-21T16:00:30;102019.81;;;7.59;99.84
53647;BME280;39550;52.230;5.194;2023-11-21T16:02:55;102130.59;;;8.15;100.00
53647;BME280;39550;52.230;5.194;2023-11-21T16:05:22;102125.59;;;8.18;100.00
53647;BME280;39550;52.230;5.194;2023-11-21T16:07:51;102070.22;;;7.80;100.00
53647;BME280;39550;52.230;5.194;2023-11-21T16:10:19;102109.47;;;8.00;99.85
53647;BME280;39550;52.230;5.194;2023-11-21T16:13:03;102032.59;;;7.58;100.00
53647;BME280;39550;52.230;5.194;2023-11-21T16:15:31;102036.66;;;7.53;100.00
53647;BME280;39550;52.230;5.194;2023-11-21T16:17:59;102111.94;;;7.97;100.00
53647;BME280;39550;52.230;5.194;2023-11-21T16:23:08;102037.22;;;7.45;100.00
53647;BME280;39550;52.230;5.194;2023-11-21T16:25:51;102068.50;;;7.58;100.00
53647;BME280;39550;52.230;5.194;2023-11-21T16:31:46;102115.59;;;7.81;100.00
53647;BME280;39550;52.230;5.194;2023-11-21T16:34:33;102162.56;;;8.01;100.00
53647;BME280;39550;52.230;5.194;2023-11-21T16:37:21;102187.94;;;8.14;100.00
53647;BME280;39550;52.230;5.194;2023-11-21T16:42:40;102139.19;;;7.72;100.00
53647;BME280;39550;52.230;5.194;2023-11-21T16:45:06;102214.41;;;8.13;100.00
53647;BME280;39550;52.230;5.194;2023-11-21T16:54:15;102241.75;;;8.11;100.00
53647;BME280;39550;52.230;5.194;2023-11-21T16:56:55;102119.22;;;7.44;100.00
53647;BME280;39550;52.230;5.194;2023-11-21T17:00:05;102130.19;;;7.40;100.00
53647;BME280;39550;52.230;5.194;2023-11-21T17:02:49;102129.97;;;7.35;100.00
53647;BME280;39550;52.230;5.194;2023-11-21T17:05:53;102147.22;;;7.39;100.00
53647;BME280;39550;52.230;5.194;2023-11-21T17:11:58;102242.09;;;7.78;100.00
53647;BME280;39550;52.230;5.194;2023-11-21T17:14:38;102169.38;;;7.37;100.00
53647;BME280;39550;52.230;5.194;2023-11-21T17:17:11;102175.59;;;7.42;100.00
53647;BME280;39550;52.230;5.194;2023-11-21T17:19:46;102199.03;;;7.52;100.00
53647;BME280;39550;52.230;5.194;2023-11-21T17:22:22;102253.22;;;7.79;100.00
53647;BME280;39550;52.230;5.194;2023-11-21T17:24:48;102188.41;;;7.42;100.00
53647;BME280;39550;52.230;5.194;2023-11-21T17:27:13;102192.72;;;7.43;100.00
53647;BME280;39550;52.230;5.194;2023-11-21T17:29:38;102273.00;;;7.81;100.00
53647;BME280;39550;52.230;5.194;2023-11-21T17:32:34;102309.97;;;8.06;100.00
53647;BME280;39550;52.230;5.194;2023-11-21T17:35:20;102244.94;;;7.65;100.00
53647;BME280;39550;52.230;5.194;2023-11-21T17:37:52;102189.09;;;7.38;100.00
53647;BME280;39550;52.230;5.194;2023-11-21T17:40:18;102195.09;;;7.39;100.00
53647;BME280;39550;52.230;5.194;2023-11-21T17:42:54;102246.47;;;7.61;99.94
53647;BME280;39550;52.230;5.194;2023-11-21T17:45:19;102214.81;;;7.40;100.00
53647;BME280;39550;52.230;5.194;2023-11-21T17:47:48;102317.34;;;7.98;100.00
53647;BME280;39550;52.230;5.194;2023-11-21T17:50:13;102289.09;;;7.77;100.00
53647;BME280;39550;52.230;5.194;2023-11-21T17:52:39;102264.38;;;7.60;100.00
53647;BME280;39550;52.230;5.194;2023-11-21T17:55:05;102249.94;;;7.62;100.00
53647;BME280;39550;52.230;5.194;2023-11-21T17:57:32;102304.94;;;7.88;100.00
53647;BME280;39550;52.230;5.194;2023-11-21T17:59:57;102229.28;;;7.39;100.00
53647;BME280;39550;52.230;5.194;2023-11-21T18:02:23;102256.94;;;7.45;100.00
53647;BME280;39550;52.230;5.194;2023-11-21T18:04:48;102353.28;;;7.98;100.00
53647;BME280;39550;52.230;5.194;2023-11-21T18:07:13;102308.66;;;7.75;100.00
53647;BME280;39550;52.230;5.194;2023-11-21T18:09:41;102284.84;;;7.58;100.00
53647;BME280;39550;52.230;5.194;2023-11-21T18:12:45;102254.81;;;7.36;99.93
53647;BME280;39550;52.230;5.194;2023-11-21T18:15:28;102299.38;;;7.58;100.00
53647;BME280;39550;52.230;5.194;2023-11-21T18:18:43;102297.34;;;7.50;100.00
53647;BME280;39550;52.230;5.194;2023-11-21T18:21:30;102300.16;;;7.57;100.00
53647;BME280;39550;52.230;5.194;2023-11-21T18:27:13;102349.88;;;7.78;100.00
53647;BME280;39550;52.230;5.194;2023-11-21T18:29:49;102332.31;;;7.68;100.00
53647;BME280;39550;52.230;5.194;2023-11-21T18:35:52;102398.50;;;7.95;100.00
53647;BME280;39550;52.230;5.194;2023-11-21T18:38:51;102287.91;;;7.30;100.00
53647;BME280;39550;52.230;5.194;2023-11-21T18:41:39;102367.78;;;7.77;100.00
53647;BME280;39550;52.230;5.194;2023-11-21T18:44:10;102407.00;;;7.94;100.00
53647;BME280;39550;52.230;5.194;2023-11-21T18:46:39;102293.75;;;7.27;100.00
53647;BME280;39550;52.230;5.194;2023-11-21T18:49:08;102325.47;;;7.49;100.00
53647;BME280;39550;52.230;5.194;2023-11-21T18:51:34;102335.84;;;7.50;99.96
53647;BME280;39550;52.230;5.194;2023-11-21T18:54:24;102336.94;;;7.38;99.99
53647;BME280;39550;52.230;5.194;2023-11-21T18:56:55;102307.38;;;7.26;100.00
53647;BME280;39550;52.230;5.194;2023-11-21T18:59:29;102322.16;;;7.32;100.00
53647;BME280;39550;52.230;5.194;2023-11-21T19:02:05;102372.06;;;7.58;100.00
53647;BME280;39550;52.230;5.194;2023-11-21T19:04:38;102434.56;;;7.98;100.00
53647;BME280;39550;52.230;5.194;2023-11-21T19:07:04;102360.94;;;7.58;99.83
53647;BME280;39550;52.230;5.194;2023-11-21T19:09:31;102380.91;;;7.65;99.87
53647;BME280;39550;52.230;5.194;2023-11-21T19:12:02;102408.22;;;7.82;100.00
53647;BME280;39550;52.230;5.194;2023-11-21T19:14:28;102414.84;;;7.77;99.22
53647;BME280;39550;52.230;5.194;2023-11-21T19:16:54;102391.59;;;7.55;99.66
53647;BME280;39550;52.230;5.194;2023-11-21T19:19:19;102401.03;;;7.56;99.73
53647;BME280;39550;52.230;5.194;2023-11-21T19:21:47;102485.78;;;7.95;100.00
53647;BME280;39550;52.230;5.194;2023-11-21T19:24:16;102398.19;;;7.49;99.51
53647;BME280;39550;52.230;5.194;2023-11-21T19:26:44;102400.63;;;7.46;100.00
53647;BME280;39550;52.230;5.194;2023-11-21T19:29:13;102410.06;;;7.47;99.87
53647;BME280;39550;52.230;5.194;2023-11-21T19:31:44;102358.22;;;7.17;100.00
53647;BME280;39550;52.230;5.194;2023-11-21T19:43:15;102506.34;;;7.77;99.37
53647;BME280;39550;52.230;5.194;2023-11-21T19:45:43;102411.66;;;7.26;99.55
53647;BME280;39550;52.230;5.194;2023-11-21T19:48:15;102422.09;;;7.30;98.79
53647;BME280;39550;52.230;5.194;2023-11-21T19:51:17;102366.78;;;6.98;98.78
53647;BME280;39550;52.230;5.194;2023-11-21T20:01:30;102466.78;;;7.54;98.23
53647;BME280;39550;52.230;5.194;2023-11-21T20:03:59;102420.28;;;7.28;98.88
53647;BME280;39550;52.230;5.194;2023-11-21T20:09:49;102421.91;;;7.26;99.06
53647;BME280;39550;52.230;5.194;2023-11-21T20:12:27;102434.84;;;7.29;98.82
53647;BME280;39550;52.230;5.194;2023-11-21T20:14:57;102398.09;;;7.10;98.72
53647;BME280;39550;52.230;5.194;2023-11-21T20:17:48;102440.13;;;7.32;99.23
53647;BME280;39550;52.230;5.194;2023-11-21T20:20:16;102385.50;;;6.97;99.13
53647;BME280;39550;52.230;5.194;2023-11-21T20:29:15;102494.63;;;7.46;99.30
53647;BME280;39550;52.230;5.194;2023-11-21T20:31:53;102453.53;;;7.26;99.06
53647;BME280;39550;52.230;5.194;2023-11-21T20:35:04;102431.91;;;7.03;99.26
53647;BME280;39550;52.230;5.194;2023-11-21T20:41:13;102477.47;;;7.27;99.00
53647;BME280;39550;52.230;5.194;2023-11-21T20:47:16;102471.22;;;7.20;98.70
53647;BME280;39550;52.230;5.194;2023-11-21T21:00:20;102531.00;;;7.37;98.70
53647;BME280;39550;52.230;5.194;2023-11-21T21:05:44;102484.81;;;7.01;98.67
53647;BME280;39550;52.230;5.194;2023-11-21T21:18:52;102589.47;;;7.62;98.64
53647;BME280;39550;52.230;5.194;2023-11-21T21:21:54;102546.22;;;7.34;98.77
53647;BME280;39550;52.230;5.194;2023-11-21T21:25:21;102565.50;;;7.44;99.04
53647;BME280;39550;52.230;5.194;2023-11-21T21:28:04;102482.59;;;6.91;98.69
53647;BME280;39550;52.230;5.194;2023-11-21T21:38:15;102499.72;;;6.92;99.26
53647;BME280;39550;52.230;5.194;2023-11-21T21:41:28;102590.84;;;7.38;98.71
53647;BME280;39550;52.230;5.194;2023-11-21T21:44:28;102620.84;;;7.57;98.83
53647;BME280;39550;52.230;5.194;2023-11-21T21:50:31;102600.16;;;7.36;99.15
53647;BME280;39550;52.230;5.194;2023-11-21T21:53:37;102638.00;;;7.58;99.03
53647;BME280;39550;52.230;5.194;2023-11-21T21:56:42;102584.59;;;7.14;98.68
53647;BME280;39550;52.230;5.194;2023-11-21T22:00:01;102595.44;;;7.27;98.53
53647;BME280;39550;52.230;5.194;2023-11-21T22:13:02;102571.13;;;6.84;98.76
53647;BME280;39550;52.230;5.194;2023-11-21T22:19:27;102638.22;;;7.28;98.69
53647;BME280;39550;52.230;5.194;2023-11-21T22:25:21;102627.69;;;7.22;98.68
53647;BME280;39550;52.230;5.194;2023-11-21T22:31:04;102604.78;;;7.08;98.25
53647;BME280;39550;52.230;5.194;2023-11-21T22:33:51;102669.97;;;7.46;97.81
53647;BME280;39550;52.230;5.194;2023-11-21T22:39:56;102567.66;;;6.84;97.92
53647;BME280;39550;52.230;5.194;2023-11-21T22:42:46;102676.81;;;7.47;98.11
53647;BME280;39550;52.230;5.194;2023-11-21T22:45:51;102575.34;;;6.84;97.71
53647;BME280;39550;52.230;5.194;2023-11-21T22:48:33;102590.78;;;6.85;97.72
53647;BME280;39550;52.230;5.194;2023-11-21T22:51:12;102636.03;;;7.18;97.81
53647;BME280;39550;52.230;5.194;2023-11-21T22:56:44;102625.84;;;7.03;98.17
53647;BME280;39550;52.230;5.194;2023-11-21T22:59:31;102568.00;;;6.73;98.33
53647;BME280;39550;52.230;5.194;2023-11-21T23:02:06;102616.19;;;6.97;97.97
53647;BME280;39550;52.230;5.194;2023-11-21T23:11:44;102626.91;;;6.90;97.92
53647;BME280;39550;52.230;5.194;2023-11-21T23:14:55;102607.94;;;6.86;97.80
53647;BME280;39550;52.230;5.194;2023-11-21T23:21:14;102651.41;;;7.01;98.45
53647;BME280;39550;52.230;5.194;2023-11-21T23:23:48;102607.28;;;6.74;97.93
53647;BME280;39550;52.230;5.194;2023-11-21T23:29:47;102597.75;;;6.71;97.92
53647;BME280;39550;52.230;5.194;2023-11-21T23:32:29;102590.91;;;6.70;97.81
53647;BME280;39550;52.230;5.194;2023-11-21T23:35:20;102568.31;;;6.63;98.14
53647;BME280;39550;52.230;5.194;2023-11-21T23:38:01;102647.56;;;7.09;98.31
53647;BME280;39550;52.230;5.194;2023-11-21T23:40:39;102678.31;;;7.26;98.33
53647;BME280;39550;52.230;5.194;2023-11-21T23:43:37;102609.69;;;6.87;97.71
53647;BME280;39550;52.230;5.194;2023-11-21T23:46:25;102584.88;;;6.70;98.22
53647;BME280;39550;52.230;5.194;2023-11-21T23:49:36;102701.84;;;7.35;97.97
53647;BME280;39550;52.230;5.194;2023-11-21T23:52:41;102697.53;;;7.34;98.35
53647;BME280;39550;52.230;5.194;2023-11-21T23:55:47;102689.84;;;7.34;98.42
53647;BME280;39550;52.230;5.194;2023-11-21T23:58:24;102621.94;;;6.93;98.33
